sensor_id;sensor_type;location;lat;lon;timestamp;P1;durP1;ratioP1;P2;durP2;ratioP2
69047;SDS011;56119;50.118;8.642;2023-05-14T00:01:34;9.55;;;7.45;;
69047;SDS011;56119;50.118;8.642;2023-05-14T00:04:01;11.05;;;7.97;;
69047;SDS011;56119;50.118;8.642;2023-05-14T00:06:27;9.88;;;7.85;;
69047;SDS011;56119;50.118;8.642;2023-05-14T00:08:53;8.60;;;7.80;;
69047;SDS011;56119;50.118;8.642;2023-05-14T00:11:19;9.40;;;7.63;;
69047;SDS011;56119;50.118;8.642;2023-05-14T00:13:45;10.98;;;7.75;;
69047;SDS011;56119;50.118;8.642;2023-05-14T00:16:11;9.57;;;8.57;;
69047;SDS011;56119;50.118;8.642;2023-05-14T00:18:37;11.18;;;8.00;;
69047;SDS011;56119;50.118;8.642;2023-05-14T00:21:03;13.68;;;8.55;;
69047;SDS011;56119;50.118;8.642;2023-05-14T00:23:29;10.05;;;8.20;;
69047;SDS011;56119;50.118;8.642;2023-05-14T00:25:55;9.98;;;7.85;;
69047;SDS011;56119;50.118;8.642;2023-05-14T00:28:21;8.98;;;7.53;;
69047;SDS011;56119;50.118;8.642;2023-05-14T00:30:47;9.13;;;7.80;;
69047;SDS011;56119;50.118;8.642;2023-05-14T00:33:13;11.30;;;8.93;;
69047;SDS011;56119;50.118;8.642;2023-05-14T00:35:39;9.95;;;8.73;;
69047;SDS011;56119;50.118;8.642;2023-05-14T00:38:05;9.45;;;8.20;;
69047;SDS011;56119;50.118;8.642;2023-05-14T00:40:31;8.80;;;7.88;;
69047;SDS011;56119;50.118;8.642;2023-05-14T00:42:57;10.63;;;8.60;;
69047;SDS011;56119;50.118;8.642;2023-05-14T00:45:24;9.80;;;8.18;;
69047;SDS011;56119;50.118;8.642;2023-05-14T00:47:50;10.27;;;8.95;;
69047;SDS011;56119;50.118;8.642;2023-05-14T00:50:16;13.40;;;8.98;;
69047;SDS011;56119;50.118;8.642;2023-05-14T00:52:42;10.10;;;7.97;;
69047;SDS011;56119;50.118;8.642;2023-05-14T00:55:08;12.63;;;9.50;;
69047;SDS011;56119;50.118;8.642;2023-05-14T00:57:36;9.38;;;8.48;;
69047;SDS011;56119;50.118;8.642;2023-05-14T01:00:03;10.07;;;9.07;;
69047;SDS011;56119;50.118;8.642;2023-05-14T01:02:29;9.68;;;8.68;;
69047;SDS011;56119;50.118;8.642;2023-05-14T01:04:55;10.60;;;8.60;;
69047;SDS011;56119;50.118;8.642;2023-05-14T01:15:10;13.85;;;8.13;;
69047;SDS011;56119;50.118;8.642;2023-05-14T01:17:53;9.98;;;8.93;;
69047;SDS011;56119;50.118;8.642;2023-05-14T01:20:19;9.25;;;8.02;;
69047;SDS011;56119;50.118;8.642;2023-05-14T01:22:45;11.73;;;8.95;;
69047;SDS011;56119;50.118;8.642;2023-05-14T01:25:11;10.77;;;9.65;;
69047;SDS011;56119;50.118;8.642;2023-05-14T01:32:42;9.98;;;8.27;;
69047;SDS011;56119;50.118;8.642;2023-05-14T01:35:09;10.27;;;9.15;;
69047;SDS011;56119;50.118;8.642;2023-05-14T01:37:35;11.15;;;9.50;;
69047;SDS011;56119;50.118;8.642;2023-05-14T01:40:01;11.60;;;9.75;;
69047;SDS011;56119;50.118;8.642;2023-05-14T01:42:28;10.98;;;9.18;;
69047;SDS011;56119;50.118;8.642;2023-05-14T01:44:54;10.20;;;8.77;;
69047;SDS011;56119;50.118;8.642;2023-05-14T01:47:20;10.52;;;9.23;;
69047;SDS011;56119;50.118;8.642;2023-05-14T01:49:46;9.50;;;8.50;;
69047;SDS011;56119;50.118;8.642;2023-05-14T01:52:12;10.90;;;9.27;;
69047;SDS011;56119;50.118;8.642;2023-05-14T01:54:38;11.20;;;8.57;;
69047;SDS011;56119;50.118;8.642;2023-05-14T01:57:04;10.55;;;8.95;;
69047;SDS011;56119;50.118;8.642;2023-05-14T01:59:30;9.95;;;8.48;;
69047;SDS011;56119;50.118;8.642;2023-05-14T02:01:56;11.10;;;9.85;;
69047;SDS011;56119;50.118;8.642;2023-05-14T02:04:22;12.25;;;9.30;;
69047;SDS011;56119;50.118;8.642;2023-05-14T02:06:48;12.38;;;9.65;;
69047;SDS011;56119;50.118;8.642;2023-05-14T02:09:14;11.98;;;8.70;;
69047;SDS011;56119;50.118;8.642;2023-05-14T02:11:40;9.68;;;8.68;;
69047;SDS011;56119;50.118;8.642;2023-05-14T02:14:06;11.40;;;9.10;;
69047;SDS011;56119;50.118;8.642;2023-05-14T02:16:32;12.68;;;9.05;;
69047;SDS011;56119;50.118;8.642;2023-05-14T02:18:58;10.73;;;9.35;;
69047;SDS011;56119;50.118;8.642;2023-05-14T02:21:24;11.63;;;9.18;;
69047;SDS011;56119;50.118;8.642;2023-05-14T02:23:50;9.77;;;8.15;;
69047;SDS011;56119;50.118;8.642;2023-05-14T02:26:16;13.15;;;9.18;;
69047;SDS011;56119;50.118;8.642;2023-05-14T02:28:42;11.57;;;8.52;;
69047;SDS011;56119;50.118;8.642;2023-05-14T02:31:09;11.38;;;9.18;;
69047;SDS011;56119;50.118;8.642;2023-05-14T02:33:35;10.05;;;8.73;;
69047;SDS011;56119;50.118;8.642;2023-05-14T02:36:01;11.85;;;9.60;;
69047;SDS011;56119;50.118;8.642;2023-05-14T02:38:27;9.50;;;8.52;;
69047;SDS011;56119;50.118;8.642;2023-05-14T02:40:53;10.93;;;9.82;;
69047;SDS011;56119;50.118;8.642;2023-05-14T02:43:20;10.68;;;8.80;;
69047;SDS011;56119;50.118;8.642;2023-05-14T02:45:46;10.02;;;8.93;;
69047;SDS011;56119;50.118;8.642;2023-05-14T02:48:12;10.43;;;9.25;;
69047;SDS011;56119;50.118;8.642;2023-05-14T02:50:38;11.00;;;9.18;;
69047;SDS011;56119;50.118;8.642;2023-05-14T02:53:04;12.07;;;9.07;;
69047;SDS011;56119;50.118;8.642;2023-05-14T02:55:30;10.55;;;9.48;;
69047;SDS011;56119;50.118;8.642;2023-05-14T02:57:56;10.55;;;8.73;;
69047;SDS011;56119;50.118;8.642;2023-05-14T03:00:22;11.10;;;9.85;;
69047;SDS011;56119;50.118;8.642;2023-05-14T03:02:48;11.27;;;10.10;;
69047;SDS011;56119;50.118;8.642;2023-05-14T03:05:14;11.48;;;8.88;;
69047;SDS011;56119;50.118;8.642;2023-05-14T03:07:40;10.38;;;9.00;;
69047;SDS011;56119;50.118;8.642;2023-05-14T03:10:06;11.50;;;9.50;;
69047;SDS011;56119;50.118;8.642;2023-05-14T03:12:32;10.85;;;9.50;;
69047;SDS011;56119;50.118;8.642;2023-05-14T03:14:58;10.27;;;9.10;;
69047;SDS011;56119;50.118;8.642;2023-05-14T03:17:24;10.77;;;9.70;;
69047;SDS011;56119;50.118;8.642;2023-05-14T03:19:50;12.88;;;9.70;;
69047;SDS011;56119;50.118;8.642;2023-05-14T03:22:16;11.45;;;10.13;;
69047;SDS011;56119;50.118;8.642;2023-05-14T03:24:42;14.13;;;9.90;;
69047;SDS011;56119;50.118;8.642;2023-05-14T03:27:08;11.95;;;10.65;;
69047;SDS011;56119;50.118;8.642;2023-05-14T03:29:34;11.50;;;10.40;;
69047;SDS011;56119;50.118;8.642;2023-05-14T03:32:00;13.18;;;10.30;;
69047;SDS011;56119;50.118;8.642;2023-05-14T03:34:26;10.60;;;9.23;;
69047;SDS011;56119;50.118;8.642;2023-05-14T03:36:52;14.88;;;10.20;;
69047;SDS011;56119;50.118;8.642;2023-05-14T03:39:18;10.93;;;9.77;;
69047;SDS011;56119;50.118;8.642;2023-05-14T03:41:44;14.15;;;10.15;;
69047;SDS011;56119;50.118;8.642;2023-05-14T03:44:10;11.38;;;9.93;;
69047;SDS011;56119;50.118;8.642;2023-05-14T03:46:36;11.57;;;10.40;;
69047;SDS011;56119;50.118;8.642;2023-05-14T03:49:02;10.93;;;9.82;;
69047;SDS011;56119;50.118;8.642;2023-05-14T03:51:28;13.90;;;9.63;;
69047;SDS011;56119;50.118;8.642;2023-05-14T03:53:55;13.75;;;9.65;;
69047;SDS011;56119;50.118;8.642;2023-05-14T03:56:22;11.18;;;9.63;;
69047;SDS011;56119;50.118;8.642;2023-05-14T03:58:48;10.25;;;9.25;;
69047;SDS011;56119;50.118;8.642;2023-05-14T04:01:14;11.80;;;10.18;;
69047;SDS011;56119;50.118;8.642;2023-05-14T04:03:40;10.77;;;9.68;;
69047;SDS011;56119;50.118;8.642;2023-05-14T04:06:06;11.13;;;9.02;;
69047;SDS011;56119;50.118;8.642;2023-05-14T04:08:32;10.80;;;9.70;;
69047;SDS011;56119;50.118;8.642;2023-05-14T04:10:58;11.13;;;9.52;;
69047;SDS011;56119;50.118;8.642;2023-05-14T04:13:24;12.68;;;9.45;;
69047;SDS011;56119;50.118;8.642;2023-05-14T04:15:50;11.65;;;9.00;;
69047;SDS011;56119;50.118;8.642;2023-05-14T04:18:17;12.20;;;10.93;;
69047;SDS011;56119;50.118;8.642;2023-05-14T04:20:43;11.48;;;10.38;;
69047;SDS011;56119;50.118;8.642;2023-05-14T04:23:09;13.00;;;10.70;;
69047;SDS011;56119;50.118;8.642;2023-05-14T04:25:35;12.73;;;10.40;;
69047;SDS011;56119;50.118;8.642;2023-05-14T04:28:01;11.75;;;10.02;;
69047;SDS011;56119;50.118;8.642;2023-05-14T04:30:26;11.65;;;10.27;;
69047;SDS011;56119;50.118;8.642;2023-05-14T04:32:52;11.98;;;10.43;;
69047;SDS011;56119;50.118;8.642;2023-05-14T04:35:19;12.65;;;10.30;;
69047;SDS011;56119;50.118;8.642;2023-05-14T04:37:45;13.82;;;10.80;;
69047;SDS011;56119;50.118;8.642;2023-05-14T04:40:11;11.63;;;10.43;;
69047;SDS011;56119;50.118;8.642;2023-05-14T04:42:37;12.80;;;10.07;;
69047;SDS011;56119;50.118;8.642;2023-05-14T04:45:04;13.15;;;11.30;;
69047;SDS011;56119;50.118;8.642;2023-05-14T04:47:30;11.07;;;9.93;;
69047;SDS011;56119;50.118;8.642;2023-05-14T04:49:56;12.30;;;10.20;;
69047;SDS011;56119;50.118;8.642;2023-05-14T04:52:23;13.00;;;10.75;;
69047;SDS011;56119;50.118;8.642;2023-05-14T04:54:49;12.27;;;10.10;;
69047;SDS011;56119;50.118;8.642;2023-05-14T04:57:15;13.00;;;10.98;;
69047;SDS011;56119;50.118;8.642;2023-05-14T04:59:41;12.77;;;10.70;;
69047;SDS011;56119;50.118;8.642;2023-05-14T05:02:07;11.13;;;9.88;;
69047;SDS011;56119;50.118;8.642;2023-05-14T05:04:33;13.50;;;10.68;;
69047;SDS011;56119;50.118;8.642;2023-05-14T05:06:59;11.63;;;10.20;;
69047;SDS011;56119;50.118;8.642;2023-05-14T05:09:25;11.13;;;9.80;;
69047;SDS011;56119;50.118;8.642;2023-05-14T05:11:51;12.75;;;9.70;;
69047;SDS011;56119;50.118;8.642;2023-05-14T05:14:17;10.50;;;9.48;;
69047;SDS011;56119;50.118;8.642;2023-05-14T05:16:43;10.88;;;9.70;;
69047;SDS011;56119;50.118;8.642;2023-05-14T05:19:09;10.65;;;9.30;;
69047;SDS011;56119;50.118;8.642;2023-05-14T05:21:35;11.05;;;9.80;;
69047;SDS011;56119;50.118;8.642;2023-05-14T05:24:03;10.55;;;9.50;;
69047;SDS011;56119;50.118;8.642;2023-05-14T05:26:29;11.77;;;9.20;;
69047;SDS011;56119;50.118;8.642;2023-05-14T05:28:55;10.20;;;9.20;;
69047;SDS011;56119;50.118;8.642;2023-05-14T05:31:21;10.38;;;9.05;;
69047;SDS011;56119;50.118;8.642;2023-05-14T05:33:47;10.35;;;9.25;;
69047;SDS011;56119;50.118;8.642;2023-05-14T05:36:13;10.15;;;8.60;;
69047;SDS011;56119;50.118;8.642;2023-05-14T05:38:39;11.23;;;9.05;;
69047;SDS011;56119;50.118;8.642;2023-05-14T05:41:05;11.18;;;9.35;;
69047;SDS011;56119;50.118;8.642;2023-05-14T05:43:31;10.98;;;9.52;;
69047;SDS011;56119;50.118;8.642;2023-05-14T05:45:59;9.40;;;8.43;;
69047;SDS011;56119;50.118;8.642;2023-05-14T05:48:25;10.43;;;8.82;;
69047;SDS011;56119;50.118;8.642;2023-05-14T05:50:51;9.85;;;8.85;;
69047;SDS011;56119;50.118;8.642;2023-05-14T05:53:17;10.52;;;8.45;;
69047;SDS011;56119;50.118;8.642;2023-05-14T05:55:43;9.13;;;7.82;;
69047;SDS011;56119;50.118;8.642;2023-05-14T05:58:09;9.35;;;8.45;;
69047;SDS011;56119;50.118;8.642;2023-05-14T06:00:36;9.15;;;8.23;;
69047;SDS011;56119;50.118;8.642;2023-05-14T06:03:02;10.85;;;9.40;;
69047;SDS011;56119;50.118;8.642;2023-05-14T06:05:28;8.80;;;7.90;;
69047;SDS011;56119;50.118;8.642;2023-05-14T06:07:54;8.70;;;7.80;;
69047;SDS011;56119;50.118;8.642;2023-05-14T06:10:20;8.38;;;7.57;;
69047;SDS011;56119;50.118;8.642;2023-05-14T06:12:46;8.52;;;7.47;;
69047;SDS011;56119;50.118;8.642;2023-05-14T06:15:12;10.25;;;7.40;;
69047;SDS011;56119;50.118;8.642;2023-05-14T06:17:38;8.00;;;7.22;;
69047;SDS011;56119;50.118;8.642;2023-05-14T06:20:04;7.90;;;6.95;;
69047;SDS011;56119;50.118;8.642;2023-05-14T06:22:32;7.88;;;7.05;;
69047;SDS011;56119;50.118;8.642;2023-05-14T06:24:58;9.15;;;7.63;;
69047;SDS011;56119;50.118;8.642;2023-05-14T06:27:24;8.25;;;7.40;;
69047;SDS011;56119;50.118;8.642;2023-05-14T06:29:50;10.05;;;7.28;;
69047;SDS011;56119;50.118;8.642;2023-05-14T06:32:16;8.68;;;7.40;;
69047;SDS011;56119;50.118;8.642;2023-05-14T06:34:42;9.20;;;8.15;;
69047;SDS011;56119;50.118;8.642;2023-05-14T06:37:08;8.30;;;7.50;;
69047;SDS011;56119;50.118;8.642;2023-05-14T06:39:34;8.48;;;6.85;;
69047;SDS011;56119;50.118;8.642;2023-05-14T06:42:00;8.15;;;7.10;;
69047;SDS011;56119;50.118;8.642;2023-05-14T06:44:27;9.27;;;7.50;;
69047;SDS011;56119;50.118;8.642;2023-05-14T06:46:53;7.05;;;6.35;;
69047;SDS011;56119;50.118;8.642;2023-05-14T06:49:19;9.30;;;6.22;;
69047;SDS011;56119;50.118;8.642;2023-05-14T06:51:45;8.82;;;6.32;;
69047;SDS011;56119;50.118;8.642;2023-05-14T06:54:11;6.90;;;6.20;;
69047;SDS011;56119;50.118;8.642;2023-05-14T06:56:37;6.63;;;5.80;;
69047;SDS011;56119;50.118;8.642;2023-05-14T06:59:04;9.60;;;6.57;;
69047;SDS011;56119;50.118;8.642;2023-05-14T07:01:30;7.22;;;6.18;;
69047;SDS011;56119;50.118;8.642;2023-05-14T07:03:56;7.35;;;6.25;;
69047;SDS011;56119;50.118;8.642;2023-05-14T07:06:22;7.15;;;6.45;;
69047;SDS011;56119;50.118;8.642;2023-05-14T07:08:48;7.30;;;6.20;;
69047;SDS011;56119;50.118;8.642;2023-05-14T07:11:14;6.10;;;5.50;;
69047;SDS011;56119;50.118;8.642;2023-05-14T07:13:41;7.47;;;5.80;;
69047;SDS011;56119;50.118;8.642;2023-05-14T07:16:07;7.15;;;6.00;;
69047;SDS011;56119;50.118;8.642;2023-05-14T07:18:36;6.90;;;5.97;;
69047;SDS011;56119;50.118;8.642;2023-05-14T07:21:02;6.53;;;5.93;;
69047;SDS011;56119;50.118;8.642;2023-05-14T07:23:34;6.40;;;5.40;;
69047;SDS011;56119;50.118;8.642;2023-05-14T07:26:02;6.45;;;5.85;;
69047;SDS011;56119;50.118;8.642;2023-05-14T07:28:28;7.82;;;6.47;;
69047;SDS011;56119;50.118;8.642;2023-05-14T07:30:54;6.45;;;5.82;;
69047;SDS011;56119;50.118;8.642;2023-05-14T07:33:20;7.30;;;6.20;;
69047;SDS011;56119;50.118;8.642;2023-05-14T07:35:46;6.47;;;5.55;;
69047;SDS011;56119;50.118;8.642;2023-05-14T07:38:12;7.40;;;5.90;;
69047;SDS011;56119;50.118;8.642;2023-05-14T07:40:38;7.03;;;6.32;;
69047;SDS011;56119;50.118;8.642;2023-05-14T07:43:04;7.43;;;5.78;;
69047;SDS011;56119;50.118;8.642;2023-05-14T07:45:30;8.27;;;6.13;;
69047;SDS011;56119;50.118;8.642;2023-05-14T07:47:56;7.40;;;6.35;;
69047;SDS011;56119;50.118;8.642;2023-05-14T07:50:22;7.82;;;5.43;;
69047;SDS011;56119;50.118;8.642;2023-05-14T07:52:48;7.70;;;6.13;;
69047;SDS011;56119;50.118;8.642;2023-05-14T07:55:14;7.10;;;6.40;;
69047;SDS011;56119;50.118;8.642;2023-05-14T07:57:40;6.85;;;6.07;;
69047;SDS011;56119;50.118;8.642;2023-05-14T08:00:07;7.85;;;6.28;;
69047;SDS011;56119;50.118;8.642;2023-05-14T08:02:33;6.85;;;6.15;;
69047;SDS011;56119;50.118;8.642;2023-05-14T08:04:59;10.15;;;6.28;;
69047;SDS011;56119;50.118;8.642;2023-05-14T08:07:25;7.60;;;6.07;;
69047;SDS011;56119;50.118;8.642;2023-05-14T08:09:53;9.02;;;6.15;;
69047;SDS011;56119;50.118;8.642;2023-05-14T08:12:19;8.32;;;6.18;;
69047;SDS011;56119;50.118;8.642;2023-05-14T08:14:45;6.97;;;6.28;;
69047;SDS011;56119;50.118;8.642;2023-05-14T08:17:11;6.85;;;6.15;;
69047;SDS011;56119;50.118;8.642;2023-05-14T08:19:37;7.07;;;5.60;;
69047;SDS011;56119;50.118;8.642;2023-05-14T08:22:03;6.65;;;5.95;;
69047;SDS011;56119;50.118;8.642;2023-05-14T08:24:29;9.15;;;6.40;;
69047;SDS011;56119;50.118;8.642;2023-05-14T08:26:55;7.80;;;6.63;;
69047;SDS011;56119;50.118;8.642;2023-05-14T08:29:21;7.50;;;6.00;;
69047;SDS011;56119;50.118;8.642;2023-05-14T08:31:50;8.98;;;6.03;;
69047;SDS011;56119;50.118;8.642;2023-05-14T08:34:17;7.20;;;5.82;;
69047;SDS011;56119;50.118;8.642;2023-05-14T08:36:42;7.20;;;6.20;;
69047;SDS011;56119;50.118;8.642;2023-05-14T08:39:08;7.93;;;5.97;;
69047;SDS011;56119;50.118;8.642;2023-05-14T08:41:34;6.15;;;5.50;;
69047;SDS011;56119;50.118;8.642;2023-05-14T08:46:33;6.55;;;5.20;;
69047;SDS011;56119;50.118;8.642;2023-05-14T08:49:49;6.22;;;4.97;;
69047;SDS011;56119;50.118;8.642;2023-05-14T08:51:47;6.35;;;5.40;;
69047;SDS011;56119;50.118;8.642;2023-05-14T08:54:16;7.00;;;5.22;;
69047;SDS011;56119;50.118;8.642;2023-05-14T08:56:43;5.70;;;5.00;;
69047;SDS011;56119;50.118;8.642;2023-05-14T08:59:12;5.40;;;4.68;;
69047;SDS011;56119;50.118;8.642;2023-05-14T09:01:40;6.80;;;4.95;;
69047;SDS011;56119;50.118;8.642;2023-05-14T09:04:08;6.43;;;5.82;;
69047;SDS011;56119;50.118;8.642;2023-05-14T09:06:35;7.45;;;5.20;;
69047;SDS011;56119;50.118;8.642;2023-05-14T09:09:04;6.03;;;5.03;;
69047;SDS011;56119;50.118;8.642;2023-05-14T09:11:30;5.80;;;5.20;;
69047;SDS011;56119;50.118;8.642;2023-05-14T09:13:56;5.82;;;5.05;;
69047;SDS011;56119;50.118;8.642;2023-05-14T09:16:22;5.63;;;5.03;;
69047;SDS011;56119;50.118;8.642;2023-05-14T09:18:50;6.55;;;5.47;;
69047;SDS011;56119;50.118;8.642;2023-05-14T09:21:16;6.03;;;4.75;;
69047;SDS011;56119;50.118;8.642;2023-05-14T09:23:43;6.68;;;4.97;;
69047;SDS011;56119;50.118;8.642;2023-05-14T09:26:09;5.03;;;4.53;;
69047;SDS011;56119;50.118;8.642;2023-05-14T09:28:39;5.38;;;4.05;;
69047;SDS011;56119;50.118;8.642;2023-05-14T09:31:08;6.25;;;4.18;;
69047;SDS011;56119;50.118;8.642;2023-05-14T09:33:34;5.53;;;4.45;;
69047;SDS011;56119;50.118;8.642;2023-05-14T09:36:01;6.60;;;4.30;;
69047;SDS011;56119;50.118;8.642;2023-05-14T09:38:31;4.78;;;4.20;;
69047;SDS011;56119;50.118;8.642;2023-05-14T09:40:57;6.18;;;4.05;;
69047;SDS011;56119;50.118;8.642;2023-05-14T09:43:24;5.43;;;4.55;;
69047;SDS011;56119;50.118;8.642;2023-05-14T09:45:50;3.95;;;3.55;;
69047;SDS011;56119;50.118;8.642;2023-05-14T09:48:16;5.57;;;3.78;;
69047;SDS011;56119;50.118;8.642;2023-05-14T09:50:42;5.25;;;3.60;;
69047;SDS011;56119;50.118;8.642;2023-05-14T09:53:09;3.83;;;3.10;;
69047;SDS011;56119;50.118;8.642;2023-05-14T09:55:35;4.47;;;3.17;;
69047;SDS011;56119;50.118;8.642;2023-05-14T09:58:01;3.00;;;2.47;;
69047;SDS011;56119;50.118;8.642;2023-05-14T10:00:28;4.80;;;3.20;;
69047;SDS011;56119;50.118;8.642;2023-05-14T10:02:54;3.67;;;3.20;;
69047;SDS011;56119;50.118;8.642;2023-05-14T10:05:22;3.40;;;3.10;;
69047;SDS011;56119;50.118;8.642;2023-05-14T10:07:48;4.03;;;3.17;;
69047;SDS011;56119;50.118;8.642;2023-05-14T10:10:19;3.88;;;3.47;;
69047;SDS011;56119;50.118;8.642;2023-05-14T10:12:52;3.90;;;3.22;;
69047;SDS011;56119;50.118;8.642;2023-05-14T10:15:29;3.35;;;3.03;;
69047;SDS011;56119;50.118;8.642;2023-05-14T10:17:59;4.55;;;3.00;;
69047;SDS011;56119;50.118;8.642;2023-05-14T10:20:28;3.05;;;2.50;;
69047;SDS011;56119;50.118;8.642;2023-05-14T10:22:54;4.32;;;2.88;;
69047;SDS011;56119;50.118;8.642;2023-05-14T10:25:20;4.22;;;2.90;;
69047;SDS011;56119;50.118;8.642;2023-05-14T10:27:46;2.83;;;2.17;;
69047;SDS011;56119;50.118;8.642;2023-05-14T10:30:12;3.00;;;2.60;;
69047;SDS011;56119;50.118;8.642;2023-05-14T10:32:38;3.75;;;3.10;;
69047;SDS011;56119;50.118;8.642;2023-05-14T10:35:16;3.60;;;3.17;;
69047;SDS011;56119;50.118;8.642;2023-05-14T10:37:44;3.15;;;2.78;;
69047;SDS011;56119;50.118;8.642;2023-05-14T10:40:11;3.22;;;2.42;;
69047;SDS011;56119;50.118;8.642;2023-05-14T10:42:37;3.45;;;2.97;;
69047;SDS011;56119;50.118;8.642;2023-05-14T10:45:08;3.70;;;2.53;;
69047;SDS011;56119;50.118;8.642;2023-05-14T10:47:35;3.80;;;2.88;;
69047;SDS011;56119;50.118;8.642;2023-05-14T10:50:02;5.78;;;2.85;;
69047;SDS011;56119;50.118;8.642;2023-05-14T10:52:28;3.50;;;3.20;;
69047;SDS011;56119;50.118;8.642;2023-05-14T10:57:21;3.30;;;2.90;;
69047;SDS011;56119;50.118;8.642;2023-05-14T10:59:48;3.35;;;3.03;;
69047;SDS011;56119;50.118;8.642;2023-05-14T11:02:21;3.55;;;2.83;;
69047;SDS011;56119;50.118;8.642;2023-05-14T11:05:04;3.95;;;3.55;;
69047;SDS011;56119;50.118;8.642;2023-05-14T11:07:31;3.90;;;3.50;;
69047;SDS011;56119;50.118;8.642;2023-05-14T11:09:59;5.45;;;3.30;;
69047;SDS011;56119;50.118;8.642;2023-05-14T11:12:26;3.28;;;2.97;;
69047;SDS011;56119;50.118;8.642;2023-05-14T11:14:52;3.72;;;3.20;;
69047;SDS011;56119;50.118;8.642;2023-05-14T11:17:18;5.72;;;3.42;;
69047;SDS011;56119;50.118;8.642;2023-05-14T11:19:44;3.47;;;3.17;;
69047;SDS011;56119;50.118;8.642;2023-05-14T11:22:10;3.75;;;3.20;;
69047;SDS011;56119;50.118;8.642;2023-05-14T11:24:39;3.42;;;3.10;;
69047;SDS011;56119;50.118;8.642;2023-05-14T11:27:09;3.88;;;3.25;;
69047;SDS011;56119;50.118;8.642;2023-05-14T11:29:35;3.70;;;3.25;;
69047;SDS011;56119;50.118;8.642;2023-05-14T11:32:04;3.28;;;2.97;;
69047;SDS011;56119;50.118;8.642;2023-05-14T11:34:31;4.03;;;3.63;;
69047;SDS011;56119;50.118;8.642;2023-05-14T11:37:01;7.07;;;3.70;;
69047;SDS011;56119;50.118;8.642;2023-05-14T11:39:27;3.83;;;3.13;;
69047;SDS011;56119;50.118;8.642;2023-05-14T11:41:53;3.42;;;3.13;;
69047;SDS011;56119;50.118;8.642;2023-05-14T11:44:19;3.67;;;3.30;;
69047;SDS011;56119;50.118;8.642;2023-05-14T11:46:54;3.45;;;3.15;;
69047;SDS011;56119;50.118;8.642;2023-05-14T11:49:21;4.30;;;3.30;;
69047;SDS011;56119;50.118;8.642;2023-05-14T11:51:48;3.85;;;3.10;;
69047;SDS011;56119;50.118;8.642;2023-05-14T11:54:13;4.03;;;3.20;;
69047;SDS011;56119;50.118;8.642;2023-05-14T11:56:40;3.28;;;2.80;;
69047;SDS011;56119;50.118;8.642;2023-05-14T11:59:06;3.88;;;3.33;;
69047;SDS011;56119;50.118;8.642;2023-05-14T12:01:35;3.15;;;2.88;;
69047;SDS011;56119;50.118;8.642;2023-05-14T12:04:03;3.10;;;2.80;;
69047;SDS011;56119;50.118;8.642;2023-05-14T12:06:29;3.65;;;2.55;;
69047;SDS011;56119;50.118;8.642;2023-05-14T12:08:56;3.63;;;2.90;;
69047;SDS011;56119;50.118;8.642;2023-05-14T12:11:22;4.30;;;3.15;;
69047;SDS011;56119;50.118;8.642;2023-05-14T12:13:48;2.80;;;2.60;;
69047;SDS011;56119;50.118;8.642;2023-05-14T12:16:14;3.20;;;2.90;;
69047;SDS011;56119;50.118;8.642;2023-05-14T12:18:41;3.53;;;2.92;;
69047;SDS011;56119;50.118;8.642;2023-05-14T12:21:07;4.50;;;2.70;;
69047;SDS011;56119;50.118;8.642;2023-05-14T12:23:33;3.97;;;3.03;;
69047;SDS011;56119;50.118;8.642;2023-05-14T12:26:06;4.15;;;2.97;;
69047;SDS011;56119;50.118;8.642;2023-05-14T12:28:32;3.50;;;2.70;;
69047;SDS011;56119;50.118;8.642;2023-05-14T12:30:58;3.70;;;3.35;;
69047;SDS011;56119;50.118;8.642;2023-05-14T12:33:27;4.22;;;2.97;;
69047;SDS011;56119;50.118;8.642;2023-05-14T12:35:53;3.45;;;2.95;;
69047;SDS011;56119;50.118;8.642;2023-05-14T12:38:25;4.07;;;3.22;;
69047;SDS011;56119;50.118;8.642;2023-05-14T12:40:51;3.00;;;2.72;;
69047;SDS011;56119;50.118;8.642;2023-05-14T12:43:18;3.97;;;2.53;;
69047;SDS011;56119;50.118;8.642;2023-05-14T12:45:44;2.65;;;2.40;;
69047;SDS011;56119;50.118;8.642;2023-05-14T12:48:10;3.17;;;2.50;;
69047;SDS011;56119;50.118;8.642;2023-05-14T12:50:37;4.13;;;2.85;;
69047;SDS011;56119;50.118;8.642;2023-05-14T12:53:03;3.30;;;2.50;;
69047;SDS011;56119;50.118;8.642;2023-05-14T12:55:29;3.40;;;2.58;;
69047;SDS011;56119;50.118;8.642;2023-05-14T12:57:55;3.88;;;2.85;;
69047;SDS011;56119;50.118;8.642;2023-05-14T13:00:21;3.15;;;2.70;;
69047;SDS011;56119;50.118;8.642;2023-05-14T13:02:47;3.90;;;2.75;;
69047;SDS011;56119;50.118;8.642;2023-05-14T13:05:13;2.90;;;2.60;;
69047;SDS011;56119;50.118;8.642;2023-05-14T13:07:39;2.90;;;2.67;;
69047;SDS011;56119;50.118;8.642;2023-05-14T13:10:06;3.22;;;2.88;;
69047;SDS011;56119;50.118;8.642;2023-05-14T13:12:32;3.60;;;2.80;;
69047;SDS011;56119;50.118;8.642;2023-05-14T13:14:58;3.20;;;2.90;;
69047;SDS011;56119;50.118;8.642;2023-05-14T13:17:24;3.72;;;3.03;;
69047;SDS011;56119;50.118;8.642;2023-05-14T13:19:50;2.47;;;2.28;;
69047;SDS011;56119;50.118;8.642;2023-05-14T13:22:16;3.60;;;2.53;;
69047;SDS011;56119;50.118;8.642;2023-05-14T13:24:42;3.00;;;2.70;;
69047;SDS011;56119;50.118;8.642;2023-05-14T13:27:09;3.38;;;3.00;;
69047;SDS011;56119;50.118;8.642;2023-05-14T13:29:35;3.30;;;2.60;;
69047;SDS011;56119;50.118;8.642;2023-05-14T13:32:01;3.20;;;2.70;;
69047;SDS011;56119;50.118;8.642;2023-05-14T13:34:27;5.90;;;3.50;;
69047;SDS011;56119;50.118;8.642;2023-05-14T13:36:53;4.43;;;2.42;;
69047;SDS011;56119;50.118;8.642;2023-05-14T13:39:19;3.85;;;2.65;;
69047;SDS011;56119;50.118;8.642;2023-05-14T13:41:46;2.42;;;2.22;;
69047;SDS011;56119;50.118;8.642;2023-05-14T13:44:14;6.35;;;4.15;;
69047;SDS011;56119;50.118;8.642;2023-05-14T13:46:41;2.80;;;2.47;;
69047;SDS011;56119;50.118;8.642;2023-05-14T13:49:07;2.60;;;2.40;;
69047;SDS011;56119;50.118;8.642;2023-05-14T13:51:33;2.33;;;2.05;;
69047;SDS011;56119;50.118;8.642;2023-05-14T13:53:59;2.60;;;2.10;;
69047;SDS011;56119;50.118;8.642;2023-05-14T13:56:25;3.28;;;2.03;;
69047;SDS011;56119;50.118;8.642;2023-05-14T13:58:51;2.80;;;2.50;;
69047;SDS011;56119;50.118;8.642;2023-05-14T14:01:17;1.95;;;1.75;;
69047;SDS011;56119;50.118;8.642;2023-05-14T14:03:43;2.78;;;2.20;;
69047;SDS011;56119;50.118;8.642;2023-05-14T14:06:09;2.45;;;2.25;;
69047;SDS011;56119;50.118;8.642;2023-05-14T14:08:35;2.33;;;2.08;;
69047;SDS011;56119;50.118;8.642;2023-05-14T14:11:01;1.77;;;1.63;;
69047;SDS011;56119;50.118;8.642;2023-05-14T14:13:27;2.67;;;2.10;;
69047;SDS011;56119;50.118;8.642;2023-05-14T14:15:53;2.05;;;1.75;;
69047;SDS011;56119;50.118;8.642;2023-05-14T14:18:19;2.60;;;2.10;;
69047;SDS011;56119;50.118;8.642;2023-05-14T14:20:45;2.60;;;2.00;;
69047;SDS011;56119;50.118;8.642;2023-05-14T14:23:11;2.47;;;2.28;;
69047;SDS011;56119;50.118;8.642;2023-05-14T14:25:37;2.90;;;2.30;;
69047;SDS011;56119;50.118;8.642;2023-05-14T14:28:03;2.58;;;2.03;;
69047;SDS011;56119;50.118;8.642;2023-05-14T14:30:29;1.75;;;1.65;;
69047;SDS011;56119;50.118;8.642;2023-05-14T14:32:55;2.20;;;1.85;;
69047;SDS011;56119;50.118;8.642;2023-05-14T14:35:22;2.25;;;1.75;;
69047;SDS011;56119;50.118;8.642;2023-05-14T14:37:48;2.72;;;1.90;;
69047;SDS011;56119;50.118;8.642;2023-05-14T14:40:16;1.90;;;1.70;;
69047;SDS011;56119;50.118;8.642;2023-05-14T14:42:42;3.10;;;1.90;;
69047;SDS011;56119;50.118;8.642;2023-05-14T14:45:08;1.80;;;1.60;;
69047;SDS011;56119;50.118;8.642;2023-05-14T14:47:35;2.65;;;2.28;;
69047;SDS011;56119;50.118;8.642;2023-05-14T14:50:01;4.32;;;2.10;;
69047;SDS011;56119;50.118;8.642;2023-05-14T14:52:27;1.98;;;1.80;;
69047;SDS011;56119;50.118;8.642;2023-05-14T14:54:53;2.30;;;2.10;;
69047;SDS011;56119;50.118;8.642;2023-05-14T14:57:20;2.13;;;1.92;;